Time;durP1;ratioP1;P1;durP2;ratioP2;P2;SDS_P1;SDS_P2;PMS_P1;PMS_P2;Temp;Humidity;BMP_temperature;BMP_pressure;BME280_temperature;BME280_humidity;BME280_pressure;Samples;Min_cycle;Max_cycle;Signal;HPM_P1;HPM_P2
2023/04/08 00:02:06;;;;;;;33.80;21.40;;;;;;;;;;5092471;28;20052;-73
2023/04/08 00:04:32;;;;;;;32.40;20.23;;;;;;;;;;5092637;28;20082;-74
2023/04/08 00:06:58;;;;;;;31.40;20.25;;;;;;;;;;5092033;28;20115;-74
2023/04/08 00:09:24;;;;;;;33.85;21.75;;;;;;;;;;5090908;28;20443;-74
2023/04/08 00:11:50;;;;;;;30.52;21.13;;;;;;;;;;5092599;28;20028;-73
2023/04/08 00:14:16;;;;;;;32.53;21.15;;;;;;;;;;5092519;28;20054;-75
2023/04/08 00:16:42;;;;;;;33.38;20.55;;;;;;;;;;5090970;28;20024;-74
2023/04/08 00:19:08;;;;;;;33.75;21.40;;;;;;;;;;5094860;28;20035;-75
2023/04/08 00:21:34;;;;;;;30.70;20.00;;;;;;;;;;5105883;28;20028;-74
2023/04/08 00:24:00;;;;;;;28.60;20.45;;;;;;;;;;5106617;28;20517;-73
2023/04/08 00:26:26;;;;;;;29.20;19.38;;;;;;;;;;5104452;28;20032;-73
2023/04/08 00:28:52;;;;;;;29.00;19.02;;;;;;;;;;5091295;28;20024;-73
2023/04/08 00:31:18;;;;;;;31.83;20.85;;;;;;;;;;5091947;28;20051;-73
2023/04/08 00:33:44;;;;;;;34.40;20.52;;;;;;;;;;5091907;28;20024;-73
2023/04/08 00:36:10;;;;;;;32.17;19.08;;;;;;;;;;5090274;28;20600;-73
2023/04/08 00:38:36;;;;;;;32.05;20.05;;;;;;;;;;5090996;28;20111;-73
2023/04/08 00:41:02;;;;;;;34.40;20.15;;;;;;;;;;5091753;28;20103;-73
2023/04/08 00:43:28;;;;;;;31.95;20.15;;;;;;;;;;5090409;28;20398;-73
2023/04/08 00:45:54;;;;;;;36.63;20.25;;;;;;;;;;5091760;28;20140;-73
2023/04/08 00:48:20;;;;;;;35.55;20.08;;;;;;;;;;5090682;28;20036;-73
2023/04/08 00:50:47;;;;;;;36.33;20.77;;;;;;;;;;5091635;28;20063;-73
2023/04/08 00:53:17;;;;;;;36.13;20.48;;;;;;;;;;5091515;28;20028;-75
2023/04/08 00:55:44;;;;;;;34.30;18.85;;;;;;;;;;5090315;28;20460;-73
2023/04/08 00:58:10;;;;;;;32.30;19.08;;;;;;;;;;5090462;28;20490;-73
2023/04/08 01:00:37;;;;;;;32.63;18.85;;;;;;;;;;5089970;28;20028;-73
2023/04/08 01:03:21;;;;;;;28.52;16.73;;;;;;;;;;5091518;28;20426;-73
2023/04/08 01:05:53;;;;;;;33.70;17.73;;;;;;;;;;5091699;28;20020;-73
2023/04/08 01:08:19;;;;;;;28.15;15.95;;;;;;;;;;5090780;28;20461;-73
2023/04/08 01:10:47;;;;;;;28.73;16.20;;;;;;;;;;5091300;28;20031;-73
2023/04/08 01:13:16;;;;;;;25.15;15.27;;;;;;;;;;5091300;28;20031;-74
2023/04/08 01:15:44;;;;;;;25.20;15.27;;;;;;;;;;5091360;28;20031;-73
2023/04/08 01:18:13;;;;;;;28.42;15.43;;;;;;;;;;5090690;28;20028;-73
2023/04/08 01:20:40;;;;;;;26.38;15.43;;;;;;;;;;5091131;28;20661;-73
2023/04/08 01:23:12;;;;;;;28.80;16.00;;;;;;;;;;5091114;28;20031;-73
2023/04/08 01:25:39;;;;;;;24.02;14.80;;;;;;;;;;5091250;28;20012;-73
2023/04/08 01:28:15;;;;;;;29.83;16.25;;;;;;;;;;5090454;28;20074;-73
2023/04/08 01:30:42;;;;;;;26.95;15.25;;;;;;;;;;5089922;28;20444;-73
2023/04/08 01:33:13;;;;;;;25.52;14.70;;;;;;;;;;5089992;28;20035;-73
2023/04/08 01:35:39;;;;;;;25.52;15.50;;;;;;;;;;5091344;28;20044;-73
2023/04/08 01:38:06;;;;;;;28.33;14.93;;;;;;;;;;5090944;28;20028;-73
2023/04/08 01:40:34;;;;;;;26.35;15.75;;;;;;;;;;5091267;28;20027;-74
2023/04/08 01:43:00;;;;;;;26.00;14.80;;;;;;;;;;5091491;28;20024;-73
2023/04/08 01:45:27;;;;;;;24.98;14.82;;;;;;;;;;5090018;28;20028;-74
2023/04/08 01:47:53;;;;;;;27.63;15.25;;;;;;;;;;5088786;28;20504;-73
2023/04/08 01:50:20;;;;;;;24.17;14.82;;;;;;;;;;5091035;28;20032;-73
2023/04/08 01:52:47;;;;;;;25.40;15.32;;;;;;;;;;5090905;28;20036;-73
2023/04/08 01:55:14;;;;;;;24.20;13.57;;;;;;;;;;5090897;28;20028;-73
2023/04/08 01:57:41;;;;;;;26.15;15.80;;;;;;;;;;5090108;28;20028;-73
2023/04/08 02:00:09;;;;;;;27.58;14.85;;;;;;;;;;5090221;28;20031;-72
2023/04/08 02:02:38;;;;;;;24.25;14.25;;;;;;;;;;5091153;28;20020;-72
2023/04/08 02:05:05;;;;;;;30.63;16.08;;;;;;;;;;5090864;28;20050;-72
2023/04/08 02:07:30;;;;;;;29.48;15.27;;;;;;;;;;5090561;28;20031;-73
2023/04/08 02:09:57;;;;;;;29.77;16.30;;;;;;;;;;5091081;28;20032;-73
2023/04/08 02:12:23;;;;;;;28.15;14.77;;;;;;;;;;5093015;28;20031;-73
2023/04/08 02:14:49;;;;;;;25.63;14.15;;;;;;;;;;5099478;28;20414;-73
2023/04/08 02:17:29;;;;;;;26.67;14.40;;;;;;;;;;5099598;28;20024;-73
2023/04/08 02:19:58;;;;;;;26.52;14.40;;;;;;;;;;5100470;28;20027;-73
2023/04/08 02:22:47;;;;;;;24.58;13.95;;;;;;;;;;5099926;28;20031;-73
2023/04/08 02:25:14;;;;;;;28.25;14.27;;;;;;;;;;5096709;28;20016;-73
2023/04/08 02:27:40;;;;;;;28.70;15.13;;;;;;;;;;5095799;28;20489;-73
2023/04/08 02:30:07;;;;;;;29.83;14.55;;;;;;;;;;5095701;28;20028;-74
2023/04/08 02:32:34;;;;;;;28.10;13.75;;;;;;;;;;5096560;28;20086;-75
2023/04/08 02:35:04;;;;;;;29.85;14.85;;;;;;;;;;5094417;28;20055;-74
2023/04/08 02:37:31;;;;;;;29.65;14.52;;;;;;;;;;5095490;28;20344;-74
2023/04/08 02:39:57;;;;;;;25.95;14.55;;;;;;;;;;5098676;28;20393;-73
2023/04/08 02:42:23;;;;;;;25.10;13.63;;;;;;;;;;5099475;28;20062;-73
2023/04/08 02:44:49;;;;;;;27.67;12.98;;;;;;;;;;5093220;28;20028;-74
2023/04/08 02:47:15;;;;;;;26.48;14.02;;;;;;;;;;5093413;28;20494;-72
2023/04/08 02:49:41;;;;;;;25.85;13.77;;;;;;;;;;5093626;28;20406;-73
2023/04/08 02:52:07;;;;;;;22.58;13.40;;;;;;;;;;5093913;28;20028;-73
2023/04/08 02:54:34;;;;;;;26.65;13.50;;;;;;;;;;5092324;28;20128;-73
2023/04/08 02:57:00;;;;;;;26.70;14.18;;;;;;;;;;5092197;28;20077;-74
2023/04/08 02:59:26;;;;;;;26.70;13.93;;;;;;;;;;5093976;28;20016;-73
2023/04/08 03:01:52;;;;;;;29.00;14.25;;;;;;;;;;5098512;28;20046;-74
2023/04/08 03:04:18;;;;;;;28.10;14.32;;;;;;;;;;5099629;28;20432;-74
2023/04/08 03:06:43;;;;;;;28.35;13.77;;;;;;;;;;5085625;28;20035;-75
2023/04/08 03:09:10;;;;;;;29.60;14.57;;;;;;;;;;5079917;28;20032;-72
2023/04/08 03:11:36;;;;;;;27.00;12.75;;;;;;;;;;5075191;28;20028;-75
2023/04/08 03:14:02;;;;;;;27.75;13.60;;;;;;;;;;5073546;28;20032;-74
2023/04/08 03:16:28;;;;;;;31.42;14.35;;;;;;;;;;5070253;28;20028;-73
2023/04/08 03:18:54;;;;;;;27.73;13.93;;;;;;;;;;5072455;28;20024;-74
2023/04/08 03:21:20;;;;;;;29.52;14.10;;;;;;;;;;5073477;28;20055;-73
2023/04/08 03:23:46;;;;;;;27.80;13.40;;;;;;;;;;5072516;28;20021;-73
2023/04/08 03:26:12;;;;;;;26.42;12.95;;;;;;;;;;5072776;28;20624;-73
2023/04/08 03:28:38;;;;;;;23.15;12.85;;;;;;;;;;5075908;28;20390;-73
2023/04/08 03:31:04;;;;;;;23.67;12.85;;;;;;;;;;5079503;28;20107;-73
2023/04/08 03:33:30;;;;;;;25.80;12.38;;;;;;;;;;5079641;28;20429;-75
2023/04/08 03:35:56;;;;;;;23.05;12.25;;;;;;;;;;5094457;28;20028;-74
2023/04/08 03:38:23;;;;;;;26.25;13.20;;;;;;;;;;5096575;28;20045;-73
2023/04/08 03:40:49;;;;;;;23.90;12.45;;;;;;;;;;5094142;28;20068;-73
2023/04/08 03:43:15;;;;;;;21.00;11.60;;;;;;;;;;5091780;28;20027;-73
2023/04/08 03:45:41;;;;;;;21.42;11.98;;;;;;;;;;5093360;28;20016;-73
2023/04/08 03:48:07;;;;;;;22.92;11.48;;;;;;;;;;5089566;28;20035;-73
2023/04/08 03:50:33;;;;;;;20.17;10.45;;;;;;;;;;5074914;28;20040;-73
2023/04/08 03:52:59;;;;;;;23.98;11.90;;;;;;;;;;5073562;28;20051;-73
2023/04/08 03:55:25;;;;;;;20.10;11.02;;;;;;;;;;5075719;28;20025;-73
2023/04/08 03:57:51;;;;;;;17.85;10.20;;;;;;;;;;5074323;28;20025;-73
2023/04/08 04:00:17;;;;;;;17.27;10.38;;;;;;;;;;5074497;28;20497;-72
2023/04/08 04:02:43;;;;;;;19.33;10.68;;;;;;;;;;5074719;28;20028;-72
2023/04/08 04:05:10;;;;;;;16.48;9.88;;;;;;;;;;5073143;28;20031;-73
2023/04/08 04:07:36;;;;;;;18.58;10.25;;;;;;;;;;5075607;28;20039;-73
2023/04/08 04:10:02;;;;;;;20.15;10.55;;;;;;;;;;5077411;28;20021;-72
2023/04/08 04:12:28;;;;;;;17.45;10.38;;;;;;;;;;5072130;28;20029;-74
2023/04/08 04:14:54;;;;;;;20.42;10.80;;;;;;;;;;5071744;28;20113;-74
2023/04/08 04:17:20;;;;;;;16.98;10.00;;;;;;;;;;5071192;28;20059;-74
2023/04/08 04:19:46;;;;;;;21.73;11.60;;;;;;;;;;5071979;28;20178;-74
2023/04/08 04:22:12;;;;;;;17.10;9.75;;;;;;;;;;5071799;28;20021;-73
2023/04/08 04:24:38;;;;;;;19.23;11.05;;;;;;;;;;5070553;28;20117;-74
2023/04/08 04:27:04;;;;;;;20.58;11.45;;;;;;;;;;5071215;28;20050;-71
2023/04/08 04:29:31;;;;;;;18.67;10.50;;;;;;;;;;5071346;28;20124;-72
2023/04/08 04:31:57;;;;;;;21.67;10.95;;;;;;;;;;5071523;28;20020;-73
2023/04/08 04:34:23;;;;;;;18.10;10.50;;;;;;;;;;5071674;28;20027;-74
2023/04/08 04:36:49;;;;;;;20.92;11.80;;;;;;;;;;5076609;28;20084;-74
2023/04/08 04:39:15;;;;;;;23.52;11.32;;;;;;;;;;5082551;28;20044;-74
2023/04/08 04:41:43;;;;;;;24.70;12.00;;;;;;;;;;5084163;28;20088;-75
2023/04/08 04:44:09;;;;;;;21.23;11.25;;;;;;;;;;5082900;28;20042;-74
2023/04/08 04:46:35;;;;;;;21.25;12.13;;;;;;;;;;5083563;28;20458;-75
2023/04/08 04:49:01;;;;;;;22.90;11.80;;;;;;;;;;5082551;28;20644;-73
2023/04/08 04:51:27;;;;;;;23.63;12.15;;;;;;;;;;5084551;28;20044;-74
2023/04/08 04:53:53;;;;;;;24.15;12.40;;;;;;;;;;5079431;28;20052;-74
2023/04/08 04:56:20;;;;;;;21.75;12.45;;;;;;;;;;5069993;28;20503;-73
2023/04/08 04:58:46;;;;;;;20.48;11.52;;;;;;;;;;5070418;28;20024;-74
2023/04/08 05:01:12;;;;;;;24.33;12.90;;;;;;;;;;5071648;28;20065;-73
2023/04/08 05:03:38;;;;;;;25.08;12.88;;;;;;;;;;5071004;28;20024;-74
2023/04/08 05:06:04;;;;;;;19.55;11.60;;;;;;;;;;5073344;28;20029;-75
2023/04/08 05:08:30;;;;;;;18.33;12.10;;;;;;;;;;5077058;28;20036;-74
2023/04/08 05:10:58;;;;;;;17.80;10.63;;;;;;;;;;5081938;28;20024;-75
2023/04/08 05:13:24;;;;;;;23.05;12.20;;;;;;;;;;5084179;28;20021;-75
2023/04/08 05:15:50;;;;;;;22.35;12.23;;;;;;;;;;5083445;28;20082;-75
2023/04/08 05:18:16;;;;;;;26.63;11.60;;;;;;;;;;5081293;28;20242;-75
2023/04/08 05:20:42;;;;;;;24.55;12.35;;;;;;;;;;5079645;28;20104;-74
2023/04/08 05:23:08;;;;;;;21.33;11.10;;;;;;;;;;5074002;28;20090;-73
2023/04/08 05:25:35;;;;;;;19.65;11.10;;;;;;;;;;5071101;28;20021;-73
2023/04/08 05:28:01;;;;;;;25.38;11.50;;;;;;;;;;5070717;28;20053;-74
2023/04/08 05:30:27;;;;;;;20.88;11.52;;;;;;;;;;5071969;28;20033;-73
2023/04/08 05:32:53;;;;;;;19.55;11.02;;;;;;;;;;5079145;28;20021;-73
2023/04/08 05:35:19;;;;;;;21.15;10.85;;;;;;;;;;5079239;28;20080;-73
2023/04/08 05:37:45;;;;;;;18.98;11.45;;;;;;;;;;5080265;28;20052;-73
2023/04/08 05:40:11;;;;;;;19.08;10.13;;;;;;;;;;5083351;28;20023;-74
2023/04/08 05:42:37;;;;;;;23.15;11.93;;;;;;;;;;5081901;28;20021;-75
2023/04/08 05:45:03;;;;;;;19.80;11.73;;;;;;;;;;5081345;28;20017;-74
2023/04/08 05:47:29;;;;;;;18.65;10.27;;;;;;;;;;5080671;28;20055;-74
2023/04/08 05:49:55;;;;;;;22.63;10.68;;;;;;;;;;5085263;28;20024;-73
2023/04/08 05:52:22;;;;;;;19.40;10.65;;;;;;;;;;5073683;28;20021;-73
2023/04/08 05:54:48;;;;;;;18.35;11.52;;;;;;;;;;5074861;28;20059;-74
2023/04/08 05:57:15;;;;;;;20.63;11.60;;;;;;;;;;5073812;28;20359;-74
2023/04/08 05:59:41;;;;;;;20.83;11.98;;;;;;;;;;5073184;28;20029;-74
2023/04/08 06:02:07;;;;;;;19.42;11.50;;;;;;;;;;5074646;28;20028;-74
2023/04/08 06:04:33;;;;;;;17.00;10.55;;;;;;;;;;5074386;28;20483;-75
2023/04/08 06:07:01;;;;;;;18.05;11.23;;;;;;;;;;5074049;28;20455;-73
2023/04/08 06:09:27;;;;;;;19.77;11.60;;;;;;;;;;5073710;28;20028;-74
2023/04/08 06:11:53;;;;;;;19.63;11.70;;;;;;;;;;5072829;28;20544;-75
2023/04/08 06:14:19;;;;;;;23.52;12.30;;;;;;;;;;5074369;28;20036;-74
2023/04/08 06:16:45;;;;;;;21.65;13.13;;;;;;;;;;5074050;28;20028;-73
2023/04/08 06:19:11;;;;;;;20.25;11.88;;;;;;;;;;5073315;28;20032;-73
2023/04/08 06:21:37;;;;;;;22.65;12.63;;;;;;;;;;5074119;28;20110;-73
2023/04/08 06:24:03;;;;;;;21.77;13.77;;;;;;;;;;5073932;28;20718;-73
2023/04/08 06:26:29;;;;;;;26.85;14.35;;;;;;;;;;5074126;28;20099;-73
2023/04/08 06:28:55;;;;;;;21.63;13.85;;;;;;;;;;5073129;28;20020;-73
2023/04/08 06:31:21;;;;;;;20.95;12.23;;;;;;;;;;5073825;28;20048;-74
2023/04/08 06:33:47;;;;;;;21.95;13.23;;;;;;;;;;5073967;28;20571;-74
2023/04/08 06:36:13;;;;;;;22.85;12.57;;;;;;;;;;5073989;28;20155;-74
2023/04/08 06:38:39;;;;;;;22.83;13.73;;;;;;;;;;5072746;28;19920;-73
2023/04/08 06:41:06;;;;;;;26.02;14.73;;;;;;;;;;5073737;28;20024;-73
2023/04/08 06:43:32;;;;;;;23.85;13.40;;;;;;;;;;5073606;28;20470;-72
2023/04/08 06:45:58;;;;;;;23.88;13.82;;;;;;;;;;5073474;28;20021;-75
2023/04/08 06:48:29;;;;;;;27.08;15.45;;;;;;;;;;5072661;28;20047;-75
2023/04/08 06:50:58;;;;;;;27.17;15.38;;;;;;;;;;5073492;28;20029;-74
2023/04/08 06:53:25;;;;;;;24.17;15.63;;;;;;;;;;5073372;28;20028;-73
2023/04/08 06:55:51;;;;;;;26.52;15.80;;;;;;;;;;5071988;28;20408;-73
2023/04/08 06:58:17;;;;;;;24.17;15.48;;;;;;;;;;5072058;28;20060;-74
2023/04/08 07:00:43;;;;;;;28.58;18.30;;;;;;;;;;5073286;28;20421;-74
2023/04/08 07:03:10;;;;;;;25.75;15.93;;;;;;;;;;5073425;28;20032;-74
2023/04/08 07:05:37;;;;;;;26.17;16.02;;;;;;;;;;5073226;28;20471;-74
2023/04/08 07:08:03;;;;;;;29.30;17.85;;;;;;;;;;5072344;28;20035;-74
2023/04/08 07:10:29;;;;;;;29.08;17.75;;;;;;;;;;5073291;28;20028;-75
2023/04/08 07:12:55;;;;;;;31.17;19.42;;;;;;;;;;5071805;28;20066;-74
2023/04/08 07:15:21;;;;;;;28.23;18.55;;;;;;;;;;5072994;28;20017;-74
2023/04/08 07:17:47;;;;;;;30.30;19.15;;;;;;;;;;5072218;28;20020;-74
2023/04/08 07:20:13;;;;;;;32.85;20.15;;;;;;;;;;5071679;28;20032;-73
2023/04/08 07:22:40;;;;;;;29.50;18.83;;;;;;;;;;5072937;28;20382;-74
2023/04/08 07:25:06;;;;;;;30.20;19.30;;;;;;;;;;5072895;28;20427;-74
2023/04/08 07:27:35;;;;;;;28.25;19.20;;;;;;;;;;5072254;28;20054;-74
2023/04/08 07:30:01;;;;;;;29.48;18.05;;;;;;;;;;5072716;28;20071;-74
2023/04/08 07:32:27;;;;;;;26.88;17.45;;;;;;;;;;5072727;28;20082;-74
2023/04/08 07:34:54;;;;;;;25.95;16.75;;;;;;;;;;5072981;28;20029;-75
2023/04/08 07:37:21;;;;;;;24.75;16.25;;;;;;;;;;5072403;28;20090;-74
2023/04/08 07:39:47;;;;;;;25.67;15.65;;;;;;;;;;5072915;28;20024;-74
2023/04/08 07:42:13;;;;;;;26.02;16.63;;;;;;;;;;5071248;28;20027;-72
2023/04/08 07:44:39;;;;;;;22.55;15.25;;;;;;;;;;5071249;28;20119;-73
2023/04/08 07:47:06;;;;;;;21.52;14.25;;;;;;;;;;5071869;28;20035;-73
2023/04/08 07:49:32;;;;;;;21.92;14.63;;;;;;;;;;5071860;28;20460;-71
2023/04/08 07:51:58;;;;;;;21.27;13.90;;;;;;;;;;5072335;28;20032;-72
2023/04/08 07:54:24;;;;;;;24.48;14.13;;;;;;;;;;5071038;28;20116;-74
2023/04/08 07:56:50;;;;;;;19.08;13.73;;;;;;;;;;5072317;28;20036;-73
2023/04/08 07:59:16;;;;;;;19.65;13.35;;;;;;;;;;5072156;28;20016;-73
2023/04/08 08:01:42;;;;;;;18.88;13.43;;;;;;;;;;5076749;28;20111;-74
2023/04/08 08:04:09;;;;;;;14.50;10.20;;;;;;;;;;5075888;28;20020;-74
2023/04/08 08:06:35;;;;;;;14.18;9.82;;;;;;;;;;5077055;28;20020;-74
2023/04/08 08:09:01;;;;;;;18.45;12.18;;;;;;;;;;5076573;28;20104;-74
2023/04/08 08:11:27;;;;;;;15.98;11.02;;;;;;;;;;5076702;28;20467;-73
2023/04/08 08:13:53;;;;;;;17.17;12.13;;;;;;;;;;5075714;28;20035;-73
2023/04/08 08:16:19;;;;;;;16.70;11.50;;;;;;;;;;5076879;28;20033;-74
2023/04/08 08:18:45;;;;;;;15.57;11.00;;;;;;;;;;5088624;28;20025;-73
2023/04/08 08:21:11;;;;;;;17.25;10.93;;;;;;;;;;5073367;28;20021;-74
2023/04/08 08:23:37;;;;;;;14.88;10.27;;;;;;;;;;5072371;28;20047;-73
2023/04/08 08:26:05;;;;;;;13.07;9.02;;;;;;;;;;5072369;28;20039;-73
2023/04/08 08:28:31;;;;;;;11.65;8.52;;;;;;;;;;5071375;28;20025;-73
2023/04/08 08:30:57;;;;;;;11.57;8.65;;;;;;;;;;5072101;28;20025;-74
2023/04/08 08:33:24;;;;;;;14.13;9.45;;;;;;;;;;5072696;28;20032;-74
2023/04/08 08:35:51;;;;;;;12.48;8.95;;;;;;;;;;5072851;28;20084;-74
2023/04/08 08:38:17;;;;;;;12.98;9.07;;;;;;;;;;5070627;28;20032;-73
2023/04/08 08:40:44;;;;;;;12.73;9.35;;;;;;;;;;5077012;28;20020;-74
2023/04/08 08:43:10;;;;;;;14.23;9.40;;;;;;;;;;5076318;28;20032;-75
2023/04/08 08:45:40;;;;;;;11.65;8.45;;;;;;;;;;5076275;28;20028;-74
2023/04/08 08:48:07;;;;;;;13.25;9.18;;;;;;;;;;5073245;28;20520;-75
2023/04/08 08:50:33;;;;;;;12.10;8.60;;;;;;;;;;5076426;28;20092;-72
2023/04/08 08:52:59;;;;;;;12.80;9.13;;;;;;;;;;5077246;28;20071;-74
2023/04/08 08:55:26;;;;;;;11.43;8.38;;;;;;;;;;5076758;28;20116;-74
2023/04/08 08:57:52;;;;;;;13.32;9.73;;;;;;;;;;5074747;28;20028;-74
2023/04/08 09:00:18;;;;;;;13.77;9.27;;;;;;;;;;5073662;28;20016;-75
2023/04/08 09:02:44;;;;;;;10.40;7.85;;;;;;;;;;5075079;28;20016;-75
2023/04/08 09:05:10;;;;;;;11.35;8.82;;;;;;;;;;5075598;28;20091;-75
2023/04/08 09:07:39;;;;;;;16.95;9.88;;;;;;;;;;5076040;28;20039;-75
2023/04/08 09:10:05;;;;;;;14.20;9.30;;;;;;;;;;5075676;28;20483;-76
2023/04/08 09:12:31;;;;;;;12.63;9.35;;;;;;;;;;5071579;28;20471;-74
2023/04/08 09:15:03;;;;;;;12.98;9.05;;;;;;;;;;5071086;28;20031;-74
2023/04/08 09:17:37;;;;;;;11.48;8.20;;;;;;;;;;5069163;28;20107;-74
2023/04/08 09:20:14;;;;;;;10.23;8.13;;;;;;;;;;5071278;28;20025;-74
2023/04/08 09:22:59;;;;;;;10.77;8.38;;;;;;;;;;5072286;28;20059;-72
2023/04/08 09:25:26;;;;;;;12.02;9.00;;;;;;;;;;5075189;28;20032;-73
2023/04/08 09:27:52;;;;;;;13.07;9.73;;;;;;;;;;5074357;28;20496;-73
2023/04/08 09:30:19;;;;;;;18.40;11.02;;;;;;;;;;5074936;28;20036;-74
2023/04/08 09:32:49;;;;;;;15.27;10.32;;;;;;;;;;5075124;28;20115;-74
2023/04/08 09:35:16;;;;;;;14.02;10.00;;;;;;;;;;5074932;28;20044;-74
2023/04/08 09:37:42;;;;;;;16.55;10.93;;;;;;;;;;5074006;28;20021;-73
2023/04/08 09:40:08;;;;;;;17.25;10.15;;;;;;;;;;5074877;28;20025;-73
2023/04/08 09:42:36;;;;;;;14.40;10.48;;;;;;;;;;5074750;28;20030;-74
2023/04/08 09:45:04;;;;;;;14.57;10.50;;;;;;;;;;5075104;28;20028;-75
2023/04/08 09:47:33;;;;;;;15.77;10.25;;;;;;;;;;5074156;28;20032;-73
2023/04/08 09:50:04;;;;;;;13.25;9.50;;;;;;;;;;5081849;28;20085;-73
2023/04/08 09:52:30;;;;;;;;;;;;;;;;;;5094178;28;20031;-73
2023/04/08 09:55:02;;;;;;;14.23;9.55;;;;;;;;;;5095070;28;19904;-73
2023/04/08 09:57:32;;;;;;;15.02;10.30;;;;;;;;;;5094777;28;20444;-74
2023/04/08 10:00:04;;;;;;;15.05;10.80;;;;;;;;;;5094075;28;20473;-74
2023/04/08 10:02:33;;;;;;;13.73;9.52;;;;;;;;;;5094984;28;20486;-74
2023/04/08 10:04:59;;;;;;;14.15;10.40;;;;;;;;;;5094718;28;20099;-74
2023/04/08 10:07:25;;;;;;;14.50;10.27;;;;;;;;;;5093907;28;20035;-73
2023/04/08 10:09:51;;;;;;;17.65;11.52;;;;;;;;;;5094748;28;20210;-74
2023/04/08 10:12:18;;;;;;;14.45;10.13;;;;;;;;;;5094490;28;20665;-74
2023/04/08 10:15:05;;;;;;;17.23;11.73;;;;;;;;;;5094627;28;20124;-74
2023/04/08 10:17:35;;;;;;;17.02;10.75;;;;;;;;;;5093452;28;20028;-75
2023/04/08 10:20:01;;;;;;;18.27;10.60;;;;;;;;;;5094412;28;20511;-73
2023/04/08 10:22:33;;;;;;;15.57;11.13;;;;;;;;;;5094114;28;20716;-73
2023/04/08 10:25:17;;;;;;;19.13;10.95;;;;;;;;;;5094195;28;20038;-74
2023/04/08 10:27:44;;;;;;;15.30;10.88;;;;;;;;;;5093162;28;20035;-74
2023/04/08 10:30:30;;;;;;;15.55;11.27;;;;;;;;;;5093971;28;20027;-75
2023/04/08 10:33:00;;;;;;;16.15;10.40;;;;;;;;;;5089899;28;20044;-75
2023/04/08 10:35:30;;;;;;;13.65;10.13;;;;;;;;;;5092525;28;20028;-71
2023/04/08 10:37:56;;;;;;;15.32;10.80;;;;;;;;;;5093657;28;20020;-74
2023/04/08 10:40:22;;;;;;;14.70;10.10;;;;;;;;;;5096984;28;20139;-74
2023/04/08 10:42:54;;;;;;;16.15;10.27;;;;;;;;;;5105491;28;20028;-74
2023/04/08 10:45:21;;;;;;;13.55;9.85;;;;;;;;;;5105139;28;20493;-75
2023/04/08 10:47:47;;;;;;;14.60;10.20;;;;;;;;;;5102294;28;20030;-73
2023/04/08 10:50:16;;;;;;;15.02;9.95;;;;;;;;;;5094141;28;20043;-74
2023/04/08 10:52:54;;;;;;;13.75;9.88;;;;;;;;;;5093963;28;20028;-73
2023/04/08 10:55:24;;;;;;;12.85;8.57;;;;;;;;;;5093628;28;20428;-74
2023/04/08 10:57:50;;;;;;;11.77;8.98;;;;;;;;;;5093291;28;20098;-74
2023/04/08 11:00:36;;;;;;;11.13;8.07;;;;;;;;;;5093683;28;20541;-74
2023/04/08 11:03:09;;;;;;;13.52;8.57;;;;;;;;;;5093609;28;20016;-73
2023/04/08 11:05:36;;;;;;;12.50;8.52;;;;;;;;;;5093288;28;20028;-74
2023/04/08 11:08:03;;;;;;;10.82;8.18;;;;;;;;;;5091362;28;20031;-74
2023/04/08 11:10:29;;;;;;;13.32;9.15;;;;;;;;;;5093591;28;20032;-73
2023/04/08 11:12:55;;;;;;;12.75;8.25;;;;;;;;;;5093693;28;20483;-73
2023/04/08 11:15:22;;;;;;;13.93;9.48;;;;;;;;;;5093134;28;20115;-72
2023/04/08 11:17:48;;;;;;;13.80;9.50;;;;;;;;;;5092141;28;20051;-73
2023/04/08 11:20:14;;;;;;;15.30;10.48;;;;;;;;;;5093031;28;20023;-72
2023/04/08 11:22:40;;;;;;;13.27;10.43;;;;;;;;;;5093015;28;20062;-72
2023/04/08 11:25:09;;;;;;;14.70;10.55;;;;;;;;;;5093096;28;20023;-73
2023/04/08 11:27:35;;;;;;;18.38;12.52;;;;;;;;;;5090981;28;20028;-72
2023/04/08 11:30:02;;;;;;;17.75;11.77;;;;;;;;;;5092970;28;20020;-73
2023/04/08 11:32:28;;;;;;;17.98;12.50;;;;;;;;;;5091429;28;20024;-73
2023/04/08 11:34:54;;;;;;;18.38;12.95;;;;;;;;;;5092596;28;20054;-72
2023/04/08 11:37:21;;;;;;;16.30;11.80;;;;;;;;;;5092074;28;20024;-74
2023/04/08 11:39:47;;;;;;;18.02;13.10;;;;;;;;;;5091445;28;20027;-74
2023/04/08 11:42:29;;;;;;;18.38;13.23;;;;;;;;;;5092733;28;20465;-73
2023/04/08 11:44:55;;;;;;;23.00;14.27;;;;;;;;;;5091940;28;20020;-73
2023/04/08 11:47:21;;;;;;;20.40;14.25;;;;;;;;;;5091382;28;20024;-74
2023/04/08 11:49:47;;;;;;;21.77;15.35;;;;;;;;;;5093804;28;20036;-73
2023/04/08 11:52:14;;;;;;;21.05;15.40;;;;;;;;;;5092437;28;20407;-72
2023/04/08 11:54:41;;;;;;;23.50;16.00;;;;;;;;;;5092376;28;20032;-73
2023/04/08 11:57:10;;;;;;;24.35;16.67;;;;;;;;;;5090532;28;20039;-71
2023/04/08 11:59:36;;;;;;;24.17;16.95;;;;;;;;;;5092231;28;20024;-73
2023/04/08 12:02:03;;;;;;;21.13;16.33;;;;;;;;;;5092280;28;20518;-73
2023/04/08 12:04:29;;;;;;;22.75;16.23;;;;;;;;;;5092419;28;20016;-74
2023/04/08 12:06:55;;;;;;;23.35;16.77;;;;;;;;;;5092295;28;20055;-74
2023/04/08 12:09:21;;;;;;;25.52;17.73;;;;;;;;;;5091382;28;20486;-73
2023/04/08 12:11:47;;;;;;;24.33;17.13;;;;;;;;;;5092553;28;20382;-73
2023/04/08 12:14:14;;;;;;;25.95;18.05;;;;;;;;;;5091986;28;20066;-72
2023/04/08 12:16:40;;;;;;;24.50;17.60;;;;;;;;;;5091818;28;20120;-73
2023/04/08 12:19:06;;;;;;;26.38;17.55;;;;;;;;;;5091431;28;20052;-73
2023/04/08 12:21:33;;;;;;;25.63;17.20;;;;;;;;;;5091985;28;20496;-74
2023/04/08 12:24:00;;;;;;;26.38;16.70;;;;;;;;;;5090822;28;20034;-74
2023/04/08 12:26:26;;;;;;;26.17;16.98;;;;;;;;;;5092135;28;20028;-74
2023/04/08 12:28:52;;;;;;;24.85;17.05;;;;;;;;;;5091802;28;20024;-74
2023/04/08 12:31:18;;;;;;;27.58;17.73;;;;;;;;;;5092829;28;20028;-74
2023/04/08 12:33:44;;;;;;;28.23;18.48;;;;;;;;;;5091903;28;20081;-74
2023/04/08 12:36:10;;;;;;;25.35;18.02;;;;;;;;;;5092579;28;20054;-74
2023/04/08 12:38:37;;;;;;;27.60;18.67;;;;;;;;;;5091294;28;20069;-74
2023/04/08 12:41:03;;;;;;;27.85;19.45;;;;;;;;;;5092301;28;20031;-74
2023/04/08 12:43:31;;;;;;;27.88;20.15;;;;;;;;;;5091637;28;20039;-74
2023/04/08 12:45:57;;;;;;;30.95;21.13;;;;;;;;;;5091872;28;20027;-74
2023/04/08 12:48:23;;;;;;;31.08;21.00;;;;;;;;;;5089604;28;20035;-73
2023/04/08 12:50:49;;;;;;;29.40;20.42;;;;;;;;;;5091768;28;20020;-74
2023/04/08 12:53:15;;;;;;;29.98;20.33;;;;;;;;;;5091494;28;20024;-75
2023/04/08 12:55:41;;;;;;;33.92;21.80;;;;;;;;;;5091806;28;20036;-74
2023/04/08 12:58:07;;;;;;;30.73;22.15;;;;;;;;;;5089047;28;20035;-73
2023/04/08 13:00:36;;;;;;;30.90;21.05;;;;;;;;;;5091407;28;20141;-74
2023/04/08 13:03:02;;;;;;;29.40;20.08;;;;;;;;;;5091380;28;20413;-73
2023/04/08 13:05:28;;;;;;;29.17;18.90;;;;;;;;;;5091592;28;20095;-73
2023/04/08 13:07:54;;;;;;;28.13;19.30;;;;;;;;;;5090787;28;20124;-73
2023/04/08 13:10:20;;;;;;;32.15;21.20;;;;;;;;;;5091488;28;20036;-73
2023/04/08 13:12:46;;;;;;;28.27;19.83;;;;;;;;;;5091371;28;20032;-73
2023/04/08 13:15:12;;;;;;;27.75;19.27;;;;;;;;;;5091638;28;20082;-72
2023/04/08 13:17:38;;;;;;;27.65;18.33;;;;;;;;;;5090750;28;20032;-73
2023/04/08 13:20:05;;;;;;;28.15;18.63;;;;;;;;;;5091299;28;20074;-73
2023/04/08 13:22:32;;;;;;;27.08;18.17;;;;;;;;;;5091464;28;20056;-74
2023/04/08 13:24:58;;;;;;;27.35;18.30;;;;;;;;;;5091200;28;20035;-73
2023/04/08 13:27:24;;;;;;;29.27;19.77;;;;;;;;;;5090472;28;20028;-73
2023/04/08 13:29:50;;;;;;;25.67;17.67;;;;;;;;;;5091052;28;20120;-74
2023/04/08 13:32:16;;;;;;;24.92;17.33;;;;;;;;;;5091288;28;20107;-73
2023/04/08 13:34:42;;;;;;;25.23;17.52;;;;;;;;;;5091191;28;20027;-74
2023/04/08 13:37:08;;;;;;;23.35;16.05;;;;;;;;;;5090610;28;20028;-71
2023/04/08 13:39:35;;;;;;;22.27;15.77;;;;;;;;;;5091392;28;20044;-71
2023/04/08 13:42:01;;;;;;;25.02;16.30;;;;;;;;;;5091198;28;20047;-73
2023/04/08 13:44:27;;;;;;;23.50;16.20;;;;;;;;;;5091499;28;20539;-73
2023/04/08 13:46:53;;;;;;;23.33;15.88;;;;;;;;;;5090169;28;20027;-74
2023/04/08 13:49:19;;;;;;;22.77;15.40;;;;;;;;;;5090252;28;20198;-72
2023/04/08 13:51:45;;;;;;;22.23;14.80;;;;;;;;;;5091124;28;20103;-74
2023/04/08 13:54:11;;;;;;;20.10;14.07;;;;;;;;;;5091171;28;20405;-73
2023/04/08 13:56:37;;;;;;;20.42;15.20;;;;;;;;;;5091016;28;20020;-73
2023/04/08 13:59:03;;;;;;;21.63;15.23;;;;;;;;;;5090132;28;20510;-73
2023/04/08 14:01:29;;;;;;;20.33;14.65;;;;;;;;;;5091202;28;20016;-75
2023/04/08 14:03:55;;;;;;;22.98;14.95;;;;;;;;;;5090967;28;20031;-73
2023/04/08 14:06:21;;;;;;;18.33;13.43;;;;;;;;;;5089746;28;20025;-74
2023/04/08 14:08:47;;;;;;;24.45;16.25;;;;;;;;;;5092113;28;20099;-74
2023/04/08 14:11:13;;;;;;;22.25;15.35;;;;;;;;;;5093742;28;20035;-73
2023/04/08 14:13:39;;;;;;;22.73;15.50;;;;;;;;;;5095033;28;20031;-73
2023/04/08 14:16:05;;;;;;;22.45;15.25;;;;;;;;;;5092647;28;20020;-71
2023/04/08 14:18:31;;;;;;;24.80;15.95;;;;;;;;;;5093719;28;20024;-74